Terminal Aerodrome Forecast
Issued by NWS

Home | Current Version | Previous Version | Text Only | Print | Product List | Glossary On
Versions: 1 2 3 4 5 6 7 8 9 10 11 12 13 14 15 16 17 18 19 20 21
000
FTUS41 KPBZ 211700
TAFAGC
TAF
KAGC 211724Z 2118/2218 00000KT P6SM BKN025
      TEMPO 2118/2121 SCT025
     FM212100 00000KT P6SM SCT035 SCT250
     FM221500 12005KT P6SM BKN040 BKN200=

USA.gov is the U.S. government's official web portal to all federal, state and local government web resources and services.